sensor_id;sensor_type;location;lat;lon;timestamp;P1;durP1;ratioP1;P2;durP2;ratioP2
41141;SDS011;26882;0.000;0.000;2022-08-30T00:00:28;6.50;;;3.50;;
41141;SDS011;26882;0.000;0.000;2022-08-30T00:03:17;6.30;;;3.50;;
41141;SDS011;26882;0.000;0.000;2022-08-30T00:05:48;6.30;;;3.60;;
41141;SDS011;26882;0.000;0.000;2022-08-30T00:08:19;5.80;;;3.30;;
41141;SDS011;26882;0.000;0.000;2022-08-30T00:10:50;5.50;;;3.60;;
41141;SDS011;26882;0.000;0.000;2022-08-30T00:13:22;5.80;;;2.90;;
41141;SDS011;26882;0.000;0.000;2022-08-30T00:15:53;5.80;;;3.30;;
41141;SDS011;26882;0.000;0.000;2022-08-30T00:18:24;5.30;;;3.40;;
41141;SDS011;26882;0.000;0.000;2022-08-30T00:20:55;5.10;;;3.30;;
41141;SDS011;26882;0.000;0.000;2022-08-30T00:23:26;5.80;;;3.50;;
41141;SDS011;26882;0.000;0.000;2022-08-30T00:25:57;5.40;;;3.20;;
41141;SDS011;26882;0.000;0.000;2022-08-30T00:28:28;5.90;;;3.60;;
41141;SDS011;26882;0.000;0.000;2022-08-30T00:31:01;4.80;;;3.40;;
41141;SDS011;26882;0.000;0.000;2022-08-30T00:33:34;5.30;;;3.20;;
41141;SDS011;26882;0.000;0.000;2022-08-30T00:36:06;5.70;;;3.70;;
41141;SDS011;26882;0.000;0.000;2022-08-30T00:38:36;5.20;;;3.30;;
41141;SDS011;26882;0.000;0.000;2022-08-30T00:41:08;5.50;;;3.10;;
41141;SDS011;26882;0.000;0.000;2022-08-30T00:43:39;5.60;;;3.20;;
41141;SDS011;26882;0.000;0.000;2022-08-30T00:46:10;4.80;;;3.10;;
41141;SDS011;26882;0.000;0.000;2022-08-30T00:48:44;4.70;;;3.10;;
41141;SDS011;26882;0.000;0.000;2022-08-30T00:51:17;5.70;;;3.60;;
41141;SDS011;26882;0.000;0.000;2022-08-30T00:53:53;5.70;;;3.70;;
41141;SDS011;26882;0.000;0.000;2022-08-30T00:56:26;5.50;;;3.40;;
41141;SDS011;26882;0.000;0.000;2022-08-30T00:59:03;6.60;;;3.90;;
41141;SDS011;26882;0.000;0.000;2022-08-30T01:01:34;6.60;;;3.50;;
41141;SDS011;26882;0.000;0.000;2022-08-30T01:04:06;6.60;;;3.50;;
41141;SDS011;26882;0.000;0.000;2022-08-30T01:06:38;6.80;;;3.70;;
41141;SDS011;26882;0.000;0.000;2022-08-30T01:09:10;4.50;;;3.40;;
41141;SDS011;26882;0.000;0.000;2022-08-30T01:11:42;5.50;;;3.40;;
41141;SDS011;26882;0.000;0.000;2022-08-30T01:14:15;4.80;;;3.30;;
41141;SDS011;26882;0.000;0.000;2022-08-30T01:16:46;5.50;;;3.50;;
41141;SDS011;26882;0.000;0.000;2022-08-30T01:19:23;5.30;;;3.70;;
41141;SDS011;26882;0.000;0.000;2022-08-30T01:21:58;6.20;;;3.30;;
41141;SDS011;26882;0.000;0.000;2022-08-30T01:24:32;4.70;;;3.10;;
41141;SDS011;26882;0.000;0.000;2022-08-30T01:27:03;6.30;;;3.70;;
41141;SDS011;26882;0.000;0.000;2022-08-30T01:29:34;6.00;;;3.80;;
41141;SDS011;26882;0.000;0.000;2022-08-30T01:32:07;5.20;;;3.60;;
41141;SDS011;26882;0.000;0.000;2022-08-30T01:34:40;4.90;;;3.20;;
41141;SDS011;26882;0.000;0.000;2022-08-30T01:37:11;5.00;;;3.20;;
41141;SDS011;26882;0.000;0.000;2022-08-30T01:39:47;5.10;;;3.30;;
41141;SDS011;26882;0.000;0.000;2022-08-30T01:42:18;6.00;;;3.90;;
41141;SDS011;26882;0.000;0.000;2022-08-30T01:44:49;5.60;;;3.40;;
41141;SDS011;26882;0.000;0.000;2022-08-30T01:47:20;5.10;;;3.20;;
41141;SDS011;26882;0.000;0.000;2022-08-30T01:49:54;5.50;;;3.60;;
41141;SDS011;26882;0.000;0.000;2022-08-30T01:52:27;6.30;;;3.70;;
41141;SDS011;26882;0.000;0.000;2022-08-30T01:54:58;5.80;;;3.90;;
41141;SDS011;26882;0.000;0.000;2022-08-30T01:57:29;5.50;;;3.80;;
41141;SDS011;26882;0.000;0.000;2022-08-30T02:00:00;7.10;;;3.60;;
41141;SDS011;26882;0.000;0.000;2022-08-30T02:02:34;5.00;;;3.80;;
41141;SDS011;26882;0.000;0.000;2022-08-30T02:05:07;6.40;;;3.70;;
41141;SDS011;26882;0.000;0.000;2022-08-30T02:07:38;5.90;;;3.80;;
41141;SDS011;26882;0.000;0.000;2022-08-30T02:10:10;6.60;;;3.90;;
41141;SDS011;26882;0.000;0.000;2022-08-30T02:12:43;5.40;;;3.60;;
41141;SDS011;26882;0.000;0.000;2022-08-30T02:15:14;5.30;;;3.90;;
41141;SDS011;26882;0.000;0.000;2022-08-30T02:17:46;5.30;;;3.50;;
41141;SDS011;26882;0.000;0.000;2022-08-30T02:20:17;6.40;;;3.80;;
41141;SDS011;26882;0.000;0.000;2022-08-30T02:22:48;5.30;;;3.70;;
41141;SDS011;26882;0.000;0.000;2022-08-30T02:25:20;6.70;;;4.00;;
41141;SDS011;26882;0.000;0.000;2022-08-30T02:27:50;5.90;;;3.70;;
41141;SDS011;26882;0.000;0.000;2022-08-30T02:30:24;4.80;;;3.40;;
41141;SDS011;26882;0.000;0.000;2022-08-30T02:35:24;5.60;;;3.90;;
41141;SDS011;26882;0.000;0.000;2022-08-30T02:37:55;5.40;;;3.90;;
41141;SDS011;26882;0.000;0.000;2022-08-30T02:40:27;5.20;;;3.60;;
41141;SDS011;26882;0.000;0.000;2022-08-30T02:43:00;5.10;;;3.70;;
41141;SDS011;26882;0.000;0.000;2022-08-30T02:45:32;6.00;;;3.40;;
41141;SDS011;26882;0.000;0.000;2022-08-30T02:48:04;5.40;;;3.50;;
41141;SDS011;26882;0.000;0.000;2022-08-30T02:50:37;5.40;;;3.50;;
41141;SDS011;26882;0.000;0.000;2022-08-30T02:53:08;5.50;;;3.80;;
41141;SDS011;26882;0.000;0.000;2022-08-30T02:55:40;7.30;;;3.80;;
41141;SDS011;26882;0.000;0.000;2022-08-30T02:58:11;5.30;;;3.60;;
41141;SDS011;26882;0.000;0.000;2022-08-30T03:00:42;5.40;;;3.70;;
41141;SDS011;26882;0.000;0.000;2022-08-30T03:03:13;4.80;;;3.30;;
41141;SDS011;26882;0.000;0.000;2022-08-30T03:05:44;5.10;;;3.70;;
41141;SDS011;26882;0.000;0.000;2022-08-30T03:08:15;5.40;;;3.60;;
41141;SDS011;26882;0.000;0.000;2022-08-30T03:10:46;6.00;;;4.00;;
41141;SDS011;26882;0.000;0.000;2022-08-30T03:13:18;6.90;;;3.90;;
41141;SDS011;26882;0.000;0.000;2022-08-30T03:15:49;6.00;;;3.60;;
41141;SDS011;26882;0.000;0.000;2022-08-30T03:18:21;5.00;;;3.70;;
41141;SDS011;26882;0.000;0.000;2022-08-30T03:20:52;5.70;;;3.70;;
41141;SDS011;26882;0.000;0.000;2022-08-30T03:23:23;5.70;;;3.80;;
41141;SDS011;26882;0.000;0.000;2022-08-30T03:25:54;6.20;;;4.10;;
41141;SDS011;26882;0.000;0.000;2022-08-30T03:28:25;6.00;;;3.50;;
41141;SDS011;26882;0.000;0.000;2022-08-30T03:30:57;4.40;;;3.20;;
41141;SDS011;26882;0.000;0.000;2022-08-30T03:33:28;5.30;;;3.70;;
41141;SDS011;26882;0.000;0.000;2022-08-30T03:36:02;5.40;;;3.60;;
41141;SDS011;26882;0.000;0.000;2022-08-30T03:38:34;5.70;;;3.90;;
41141;SDS011;26882;0.000;0.000;2022-08-30T03:41:05;5.30;;;3.80;;
41141;SDS011;26882;0.000;0.000;2022-08-30T03:43:36;6.00;;;4.00;;
41141;SDS011;26882;0.000;0.000;2022-08-30T03:46:07;5.80;;;4.00;;
41141;SDS011;26882;0.000;0.000;2022-08-30T03:48:38;5.30;;;3.90;;
41141;SDS011;26882;0.000;0.000;2022-08-30T03:51:11;5.30;;;3.70;;
41141;SDS011;26882;0.000;0.000;2022-08-30T03:53:42;5.40;;;3.70;;
41141;SDS011;26882;0.000;0.000;2022-08-30T03:56:13;5.10;;;3.90;;
41141;SDS011;26882;0.000;0.000;2022-08-30T03:58:44;6.00;;;4.30;;
41141;SDS011;26882;0.000;0.000;2022-08-30T04:01:16;5.70;;;3.70;;
41141;SDS011;26882;0.000;0.000;2022-08-30T04:03:47;5.50;;;3.80;;
41141;SDS011;26882;0.000;0.000;2022-08-30T04:06:19;6.30;;;3.70;;
41141;SDS011;26882;0.000;0.000;2022-08-30T04:08:50;7.00;;;3.70;;
41141;SDS011;26882;0.000;0.000;2022-08-30T04:11:21;5.10;;;3.80;;
41141;SDS011;26882;0.000;0.000;2022-08-30T04:13:52;5.30;;;3.80;;
41141;SDS011;26882;0.000;0.000;2022-08-30T04:16:24;4.90;;;3.80;;
41141;SDS011;26882;0.000;0.000;2022-08-30T04:18:55;5.90;;;4.00;;
41141;SDS011;26882;0.000;0.000;2022-08-30T04:21:27;5.20;;;3.70;;
41141;SDS011;26882;0.000;0.000;2022-08-30T04:24:00;5.30;;;4.00;;
41141;SDS011;26882;0.000;0.000;2022-08-30T04:26:31;5.10;;;3.70;;
41141;SDS011;26882;0.000;0.000;2022-08-30T04:29:06;6.20;;;3.70;;
41141;SDS011;26882;0.000;0.000;2022-08-30T04:31:43;5.60;;;3.60;;
41141;SDS011;26882;0.000;0.000;2022-08-30T04:34:14;6.40;;;3.80;;
41141;SDS011;26882;0.000;0.000;2022-08-30T04:36:46;5.00;;;3.70;;
41141;SDS011;26882;0.000;0.000;2022-08-30T04:39:17;5.00;;;3.70;;
41141;SDS011;26882;0.000;0.000;2022-08-30T04:41:48;4.90;;;3.70;;
41141;SDS011;26882;0.000;0.000;2022-08-30T04:44:19;5.80;;;4.10;;
41141;SDS011;26882;0.000;0.000;2022-08-30T04:46:51;5.80;;;4.00;;
41141;SDS011;26882;0.000;0.000;2022-08-30T04:49:22;5.20;;;3.80;;
41141;SDS011;26882;0.000;0.000;2022-08-30T04:51:52;6.00;;;3.90;;
41141;SDS011;26882;0.000;0.000;2022-08-30T04:54:26;5.60;;;4.00;;
41141;SDS011;26882;0.000;0.000;2022-08-30T04:56:57;5.50;;;3.80;;
41141;SDS011;26882;0.000;0.000;2022-08-30T04:59:29;5.00;;;3.40;;
41141;SDS011;26882;0.000;0.000;2022-08-30T05:02:00;5.30;;;3.50;;
41141;SDS011;26882;0.000;0.000;2022-08-30T05:04:31;6.00;;;3.70;;
41141;SDS011;26882;0.000;0.000;2022-08-30T05:07:04;5.30;;;3.50;;
41141;SDS011;26882;0.000;0.000;2022-08-30T05:09:35;5.80;;;3.50;;
41141;SDS011;26882;0.000;0.000;2022-08-30T05:12:07;5.80;;;4.00;;
41141;SDS011;26882;0.000;0.000;2022-08-30T05:17:20;6.20;;;3.60;;
41141;SDS011;26882;0.000;0.000;2022-08-30T05:19:52;4.70;;;3.30;;
41141;SDS011;26882;0.000;0.000;2022-08-30T05:22:23;5.40;;;3.70;;
41141;SDS011;26882;0.000;0.000;2022-08-30T05:24:57;5.40;;;3.70;;
41141;SDS011;26882;0.000;0.000;2022-08-30T05:27:28;5.90;;;3.60;;
41141;SDS011;26882;0.000;0.000;2022-08-30T05:29:59;5.80;;;3.50;;
41141;SDS011;26882;0.000;0.000;2022-08-30T05:32:30;6.00;;;3.60;;
41141;SDS011;26882;0.000;0.000;2022-08-30T05:35:01;4.40;;;3.20;;
41141;SDS011;26882;0.000;0.000;2022-08-30T05:37:35;5.10;;;3.30;;
41141;SDS011;26882;0.000;0.000;2022-08-30T05:40:08;5.40;;;3.30;;
41141;SDS011;26882;0.000;0.000;2022-08-30T05:45:13;4.90;;;3.40;;
41141;SDS011;26882;0.000;0.000;2022-08-30T05:47:44;4.90;;;3.20;;
41141;SDS011;26882;0.000;0.000;2022-08-30T05:50:16;4.60;;;2.90;;
41141;SDS011;26882;0.000;0.000;2022-08-30T05:52:46;5.50;;;3.20;;
41141;SDS011;26882;0.000;0.000;2022-08-30T05:55:18;5.10;;;3.50;;
41141;SDS011;26882;0.000;0.000;2022-08-30T05:57:48;5.90;;;3.30;;
41141;SDS011;26882;0.000;0.000;2022-08-30T06:00:20;5.50;;;3.10;;
41141;SDS011;26882;0.000;0.000;2022-08-30T06:02:54;4.60;;;3.10;;
41141;SDS011;26882;0.000;0.000;2022-08-30T06:05:25;4.80;;;2.70;;
41141;SDS011;26882;0.000;0.000;2022-08-30T06:07:56;4.70;;;3.10;;
41141;SDS011;26882;0.000;0.000;2022-08-30T06:10:27;4.90;;;3.20;;
41141;SDS011;26882;0.000;0.000;2022-08-30T06:12:58;4.70;;;2.80;;
41141;SDS011;26882;0.000;0.000;2022-08-30T06:15:29;4.90;;;3.10;;
41141;SDS011;26882;0.000;0.000;2022-08-30T06:18:00;6.70;;;3.10;;
41141;SDS011;26882;0.000;0.000;2022-08-30T06:20:31;5.10;;;3.10;;
41141;SDS011;26882;0.000;0.000;2022-08-30T06:23:02;5.10;;;3.00;;
41141;SDS011;26882;0.000;0.000;2022-08-30T06:25:35;5.40;;;2.90;;
41141;SDS011;26882;0.000;0.000;2022-08-30T06:28:07;5.30;;;2.60;;
41141;SDS011;26882;0.000;0.000;2022-08-30T06:30:39;4.80;;;2.60;;
41141;SDS011;26882;0.000;0.000;2022-08-30T06:33:11;4.30;;;2.50;;
41141;SDS011;26882;0.000;0.000;2022-08-30T06:35:44;5.50;;;2.90;;
41141;SDS011;26882;0.000;0.000;2022-08-30T06:40:44;7.00;;;2.80;;
41141;SDS011;26882;0.000;0.000;2022-08-30T06:43:15;5.60;;;2.50;;
41141;SDS011;26882;0.000;0.000;2022-08-30T06:45:46;5.00;;;2.60;;
41141;SDS011;26882;0.000;0.000;2022-08-30T06:48:17;5.00;;;2.60;;
41141;SDS011;26882;0.000;0.000;2022-08-30T06:50:53;4.80;;;2.50;;
41141;SDS011;26882;0.000;0.000;2022-08-30T06:53:26;5.00;;;2.40;;
41141;SDS011;26882;0.000;0.000;2022-08-30T06:56:00;4.60;;;2.10;;
41141;SDS011;26882;0.000;0.000;2022-08-30T06:58:32;4.50;;;2.40;;
41141;SDS011;26882;0.000;0.000;2022-08-30T07:01:03;4.50;;;2.20;;
41141;SDS011;26882;0.000;0.000;2022-08-30T07:03:36;4.80;;;2.00;;
41141;SDS011;26882;0.000;0.000;2022-08-30T07:06:11;4.10;;;1.80;;
41141;SDS011;26882;0.000;0.000;2022-08-30T07:08:42;5.30;;;2.40;;
41141;SDS011;26882;0.000;0.000;2022-08-30T07:11:14;3.90;;;2.50;;
41141;SDS011;26882;0.000;0.000;2022-08-30T07:13:45;4.10;;;1.80;;
41141;SDS011;26882;0.000;0.000;2022-08-30T07:16:16;4.00;;;2.10;;
41141;SDS011;26882;0.000;0.000;2022-08-30T07:18:47;3.80;;;1.90;;
41141;SDS011;26882;0.000;0.000;2022-08-30T07:21:25;4.40;;;2.00;;
41141;SDS011;26882;0.000;0.000;2022-08-30T07:24:02;4.00;;;1.80;;
41141;SDS011;26882;0.000;0.000;2022-08-30T07:26:35;4.00;;;1.80;;
41141;SDS011;26882;0.000;0.000;2022-08-30T07:29:07;4.50;;;1.70;;
41141;SDS011;26882;0.000;0.000;2022-08-30T07:31:38;4.60;;;1.70;;
41141;SDS011;26882;0.000;0.000;2022-08-30T07:34:09;4.60;;;1.70;;
41141;SDS011;26882;0.000;0.000;2022-08-30T07:36:41;4.20;;;1.80;;
41141;SDS011;26882;0.000;0.000;2022-08-30T07:39:12;3.50;;;1.50;;
41141;SDS011;26882;0.000;0.000;2022-08-30T07:41:42;5.00;;;1.90;;
41141;SDS011;26882;0.000;0.000;2022-08-30T07:44:13;3.70;;;1.80;;
41141;SDS011;26882;0.000;0.000;2022-08-30T07:46:44;4.60;;;1.70;;
41141;SDS011;26882;0.000;0.000;2022-08-30T07:49:15;4.20;;;1.90;;
41141;SDS011;26882;0.000;0.000;2022-08-30T07:51:49;4.50;;;2.10;;
41141;SDS011;26882;0.000;0.000;2022-08-30T07:54:20;6.60;;;1.90;;
41141;SDS011;26882;0.000;0.000;2022-08-30T07:56:51;4.50;;;1.80;;
41141;SDS011;26882;0.000;0.000;2022-08-30T07:59:24;4.00;;;1.90;;
41141;SDS011;26882;0.000;0.000;2022-08-30T08:01:58;3.60;;;1.50;;
41141;SDS011;26882;0.000;0.000;2022-08-30T08:04:28;3.00;;;1.50;;
41141;SDS011;26882;0.000;0.000;2022-08-30T08:07:00;4.60;;;2.20;;
41141;SDS011;26882;0.000;0.000;2022-08-30T08:09:31;4.60;;;2.10;;
41141;SDS011;26882;0.000;0.000;2022-08-30T08:12:04;3.70;;;1.70;;
41141;SDS011;26882;0.000;0.000;2022-08-30T08:17:05;3.00;;;1.40;;
41141;SDS011;26882;0.000;0.000;2022-08-30T08:19:37;4.00;;;1.60;;
41141;SDS011;26882;0.000;0.000;2022-08-30T08:22:08;4.00;;;1.40;;
41141;SDS011;26882;0.000;0.000;2022-08-30T08:24:42;3.60;;;1.70;;
41141;SDS011;26882;0.000;0.000;2022-08-30T08:27:13;3.30;;;1.50;;
41141;SDS011;26882;0.000;0.000;2022-08-30T08:29:44;4.40;;;1.50;;
41141;SDS011;26882;0.000;0.000;2022-08-30T08:32:16;3.10;;;1.50;;
41141;SDS011;26882;0.000;0.000;2022-08-30T08:34:47;3.70;;;1.50;;
41141;SDS011;26882;0.000;0.000;2022-08-30T08:37:18;4.60;;;1.40;;
41141;SDS011;26882;0.000;0.000;2022-08-30T08:39:50;3.00;;;1.20;;
41141;SDS011;26882;0.000;0.000;2022-08-30T08:42:27;3.20;;;1.40;;
41141;SDS011;26882;0.000;0.000;2022-08-30T08:45:05;2.90;;;1.30;;
41141;SDS011;26882;0.000;0.000;2022-08-30T08:47:39;3.10;;;1.40;;
41141;SDS011;26882;0.000;0.000;2022-08-30T08:53:35;5.10;;;1.70;;
41141;SDS011;26882;0.000;0.000;2022-08-30T08:56:12;3.90;;;1.70;;
41141;SDS011;26882;0.000;0.000;2022-08-30T08:58:45;3.60;;;1.50;;
41141;SDS011;26882;0.000;0.000;2022-08-30T09:01:19;2.30;;;1.30;;
41141;SDS011;26882;0.000;0.000;2022-08-30T09:03:53;2.90;;;1.50;;
41141;SDS011;26882;0.000;0.000;2022-08-30T09:06:32;3.00;;;1.60;;
41141;SDS011;26882;0.000;0.000;2022-08-30T09:09:07;3.40;;;1.60;;
41141;SDS011;26882;0.000;0.000;2022-08-30T09:11:38;3.70;;;1.70;;
41141;SDS011;26882;0.000;0.000;2022-08-30T09:14:15;3.40;;;1.50;;
41141;SDS011;26882;0.000;0.000;2022-08-30T09:16:53;2.60;;;1.40;;
41141;SDS011;26882;0.000;0.000;2022-08-30T09:19:51;3.90;;;1.60;;
41141;SDS011;26882;0.000;0.000;2022-08-30T09:22:32;3.50;;;1.30;;
41141;SDS011;26882;0.000;0.000;2022-08-30T09:25:07;4.60;;;1.50;;
41141;SDS011;26882;0.000;0.000;2022-08-30T09:27:42;4.20;;;1.50;;
41141;SDS011;26882;0.000;0.000;2022-08-30T09:30:19;3.00;;;1.20;;
41141;SDS011;26882;0.000;0.000;2022-08-30T09:32:56;5.00;;;1.30;;
41141;SDS011;26882;0.000;0.000;2022-08-30T09:35:33;3.40;;;1.40;;
41141;SDS011;26882;0.000;0.000;2022-08-30T09:38:06;4.00;;;1.40;;
41141;SDS011;26882;0.000;0.000;2022-08-30T09:40:42;2.40;;;1.10;;
41141;SDS011;26882;0.000;0.000;2022-08-30T09:43:20;3.50;;;1.20;;
41141;SDS011;26882;0.000;0.000;2022-08-30T09:46:07;3.30;;;1.30;;
41141;SDS011;26882;0.000;0.000;2022-08-30T09:48:42;3.00;;;1.00;;
41141;SDS011;26882;0.000;0.000;2022-08-30T09:51:38;2.30;;;1.10;;
41141;SDS011;26882;0.000;0.000;2022-08-30T09:54:15;3.30;;;1.00;;
41141;SDS011;26882;0.000;0.000;2022-08-30T09:56:53;2.80;;;1.10;;
41141;SDS011;26882;0.000;0.000;2022-08-30T09:59:34;4.10;;;1.20;;
41141;SDS011;26882;0.000;0.000;2022-08-30T10:02:12;3.20;;;1.10;;
41141;SDS011;26882;0.000;0.000;2022-08-30T10:04:52;2.40;;;1.00;;
41141;SDS011;26882;0.000;0.000;2022-08-30T10:07:30;3.80;;;1.20;;
41141;SDS011;26882;0.000;0.000;2022-08-30T10:10:05;4.20;;;1.30;;
41141;SDS011;26882;0.000;0.000;2022-08-30T10:12:41;3.50;;;1.00;;
41141;SDS011;26882;0.000;0.000;2022-08-30T10:15:18;2.70;;;1.10;;
41141;SDS011;26882;0.000;0.000;2022-08-30T10:17:55;3.10;;;1.10;;
41141;SDS011;26882;0.000;0.000;2022-08-30T10:20:40;2.90;;;1.20;;
41141;SDS011;26882;0.000;0.000;2022-08-30T10:23:17;2.50;;;0.80;;
41141;SDS011;26882;0.000;0.000;2022-08-30T10:25:52;3.20;;;1.30;;
41141;SDS011;26882;0.000;0.000;2022-08-30T10:28:27;3.50;;;1.10;;
41141;SDS011;26882;0.000;0.000;2022-08-30T10:31:03;3.70;;;1.30;;
41141;SDS011;26882;0.000;0.000;2022-08-30T10:33:38;3.60;;;1.10;;
41141;SDS011;26882;0.000;0.000;2022-08-30T10:36:12;2.60;;;1.00;;
41141;SDS011;26882;0.000;0.000;2022-08-30T10:38:46;2.60;;;0.90;;
41141;SDS011;26882;0.000;0.000;2022-08-30T10:41:23;2.40;;;0.90;;
41141;SDS011;26882;0.000;0.000;2022-08-30T10:44:02;2.40;;;0.90;;
41141;SDS011;26882;0.000;0.000;2022-08-30T10:46:53;2.20;;;0.90;;
41141;SDS011;26882;0.000;0.000;2022-08-30T10:49:29;2.60;;;1.00;;
41141;SDS011;26882;0.000;0.000;2022-08-30T10:54:35;2.90;;;0.80;;
41141;SDS011;26882;0.000;0.000;2022-08-30T10:57:11;2.60;;;1.00;;
41141;SDS011;26882;0.000;0.000;2022-08-30T10:59:45;2.60;;;0.90;;
41141;SDS011;26882;0.000;0.000;2022-08-30T11:02:38;2.90;;;0.90;;
41141;SDS011;26882;0.000;0.000;2022-08-30T11:05:28;3.00;;;1.10;;
41141;SDS011;26882;0.000;0.000;2022-08-30T11:08:06;2.60;;;0.90;;
41141;SDS011;26882;0.000;0.000;2022-08-30T11:10:45;2.50;;;1.00;;
41141;SDS011;26882;0.000;0.000;2022-08-30T11:13:23;3.30;;;0.90;;
41141;SDS011;26882;0.000;0.000;2022-08-30T11:15:58;4.50;;;1.10;;
41141;SDS011;26882;0.000;0.000;2022-08-30T11:18:32;1.90;;;0.80;;
41141;SDS011;26882;0.000;0.000;2022-08-30T11:21:26;3.00;;;1.10;;
41141;SDS011;26882;0.000;0.000;2022-08-30T11:24:04;2.40;;;0.90;;
41141;SDS011;26882;0.000;0.000;2022-08-30T11:26:53;3.60;;;0.90;;
41141;SDS011;26882;0.000;0.000;2022-08-30T11:29:39;3.50;;;0.90;;
41141;SDS011;26882;0.000;0.000;2022-08-30T11:32:25;3.40;;;1.00;;
41141;SDS011;26882;0.000;0.000;2022-08-30T11:38:01;2.50;;;0.70;;
41141;SDS011;26882;0.000;0.000;2022-08-30T11:40:50;1.30;;;0.50;;
41141;SDS011;26882;0.000;0.000;2022-08-30T11:43:50;2.20;;;0.70;;
41141;SDS011;26882;0.000;0.000;2022-08-30T11:46:38;3.10;;;0.70;;
41141;SDS011;26882;0.000;0.000;2022-08-30T11:49:27;3.40;;;0.70;;
41141;SDS011;26882;0.000;0.000;2022-08-30T11:52:07;2.50;;;0.70;;
41141;SDS011;26882;0.000;0.000;2022-08-30T11:54:46;2.20;;;0.70;;
41141;SDS011;26882;0.000;0.000;2022-08-30T11:57:23;1.60;;;0.60;;
41141;SDS011;26882;0.000;0.000;2022-08-30T12:00:04;2.80;;;0.70;;
41141;SDS011;26882;0.000;0.000;2022-08-30T12:02:49;1.30;;;0.60;;
41141;SDS011;26882;0.000;0.000;2022-08-30T12:05:46;1.50;;;0.70;;
41141;SDS011;26882;0.000;0.000;2022-08-30T12:08:43;4.10;;;0.80;;
41141;SDS011;26882;0.000;0.000;2022-08-30T12:14:49;1.90;;;0.60;;
41141;SDS011;26882;0.000;0.000;2022-08-30T12:17:25;1.80;;;0.50;;
41141;SDS011;26882;0.000;0.000;2022-08-30T12:20:37;1.40;;;0.70;;
41141;SDS011;26882;0.000;0.000;2022-08-30T12:23:16;1.60;;;0.60;;
41141;SDS011;26882;0.000;0.000;2022-08-30T12:25:47;1.50;;;0.60;;
41141;SDS011;26882;0.000;0.000;2022-08-30T12:28:22;2.10;;;0.80;;
41141;SDS011;26882;0.000;0.000;2022-08-30T12:30:54;1.50;;;0.70;;
41141;SDS011;26882;0.000;0.000;2022-08-30T12:33:27;1.30;;;0.70;;
41141;SDS011;26882;0.000;0.000;2022-08-30T12:36:00;2.20;;;0.80;;
41141;SDS011;26882;0.000;0.000;2022-08-30T12:38:33;3.10;;;2.00;;
41141;SDS011;26882;0.000;0.000;2022-08-30T12:41:04;1.40;;;0.60;;
41141;SDS011;26882;0.000;0.000;2022-08-30T12:43:36;2.50;;;0.80;;
41141;SDS011;26882;0.000;0.000;2022-08-30T12:46:10;2.30;;;0.70;;
41141;SDS011;26882;0.000;0.000;2022-08-30T12:48:42;2.30;;;0.80;;
41141;SDS011;26882;0.000;0.000;2022-08-30T12:51:29;3.00;;;1.10;;
41141;SDS011;26882;0.000;0.000;2022-08-30T12:54:06;1.80;;;0.80;;
41141;SDS011;26882;0.000;0.000;2022-08-30T12:56:53;2.10;;;0.70;;
41141;SDS011;26882;0.000;0.000;2022-08-30T12:59:53;2.70;;;0.80;;
41141;SDS011;26882;0.000;0.000;2022-08-30T13:02:27;1.90;;;0.70;;
41141;SDS011;26882;0.000;0.000;2022-08-30T13:05:28;2.50;;;0.90;;
41141;SDS011;26882;0.000;0.000;2022-08-30T13:08:13;3.10;;;0.90;;
41141;SDS011;26882;0.000;0.000;2022-08-30T13:10:52;2.80;;;1.00;;
41141;SDS011;26882;0.000;0.000;2022-08-30T13:13:32;3.30;;;1.20;;
41141;SDS011;26882;0.000;0.000;2022-08-30T13:16:24;2.30;;;1.00;;
41141;SDS011;26882;0.000;0.000;2022-08-30T13:21:50;2.50;;;1.00;;
41141;SDS011;26882;0.000;0.000;2022-08-30T13:24:22;2.80;;;0.90;;
41141;SDS011;26882;0.000;0.000;2022-08-30T13:26:53;2.10;;;1.20;;
41141;SDS011;26882;0.000;0.000;2022-08-30T13:29:25;2.00;;;1.00;;
41141;SDS011;26882;0.000;0.000;2022-08-30T13:31:56;2.00;;;1.00;;
41141;SDS011;26882;0.000;0.000;2022-08-30T13:34:27;2.30;;;0.90;;
41141;SDS011;26882;0.000;0.000;2022-08-30T13:37:02;2.10;;;0.90;;
41141;SDS011;26882;0.000;0.000;2022-08-30T13:39:32;2.60;;;0.80;;
41141;SDS011;26882;0.000;0.000;2022-08-30T13:42:04;2.30;;;1.10;;
41141;SDS011;26882;0.000;0.000;2022-08-30T13:44:35;2.60;;;1.00;;
41141;SDS011;26882;0.000;0.000;2022-08-30T13:47:06;2.60;;;1.00;;
41141;SDS011;26882;0.000;0.000;2022-08-30T13:49:39;3.20;;;1.00;;
41141;SDS011;26882;0.000;0.000;2022-08-30T13:52:13;2.50;;;0.80;;
41141;SDS011;26882;0.000;0.000;2022-08-30T13:54:47;2.00;;;0.90;;
41141;SDS011;26882;0.000;0.000;2022-08-30T13:57:20;2.40;;;0.90;;
41141;SDS011;26882;0.000;0.000;2022-08-30T13:59:51;1.80;;;0.80;;
41141;SDS011;26882;0.000;0.000;2022-08-30T14:02:22;2.80;;;0.90;;
41141;SDS011;26882;0.000;0.000;2022-08-30T14:04:53;1.60;;;0.80;;
41141;SDS011;26882;0.000;0.000;2022-08-30T14:07:24;1.70;;;0.80;;
41141;SDS011;26882;0.000;0.000;2022-08-30T14:09:55;1.90;;;0.80;;
41141;SDS011;26882;0.000;0.000;2022-08-30T14:12:29;2.00;;;0.80;;
41141;SDS011;26882;0.000;0.000;2022-08-30T14:14:59;2.60;;;0.90;;
41141;SDS011;26882;0.000;0.000;2022-08-30T14:17:31;1.70;;;0.70;;
41141;SDS011;26882;0.000;0.000;2022-08-30T14:20:04;1.70;;;0.80;;
41141;SDS011;26882;0.000;0.000;2022-08-30T14:22:36;1.70;;;0.70;;
41141;SDS011;26882;0.000;0.000;2022-08-30T14:25:09;2.00;;;0.90;;
41141;SDS011;26882;0.000;0.000;2022-08-30T14:27:39;1.60;;;0.80;;
41141;SDS011;26882;0.000;0.000;2022-08-30T14:30:12;2.10;;;0.80;;
41141;SDS011;26882;0.000;0.000;2022-08-30T14:32:43;2.10;;;0.70;;
41141;SDS011;26882;0.000;0.000;2022-08-30T14:39:17;2.10;;;1.00;;
41141;SDS011;26882;0.000;0.000;2022-08-30T14:41:50;2.30;;;0.70;;
41141;SDS011;26882;0.000;0.000;2022-08-30T14:44:21;3.00;;;1.00;;
41141;SDS011;26882;0.000;0.000;2022-08-30T14:46:52;2.20;;;0.90;;
41141;SDS011;26882;0.000;0.000;2022-08-30T14:49:23;1.80;;;0.80;;
41141;SDS011;26882;0.000;0.000;2022-08-30T14:52:10;3.00;;;1.00;;
41141;SDS011;26882;0.000;0.000;2022-08-30T14:54:40;2.60;;;1.10;;
41141;SDS011;26882;0.000;0.000;2022-08-30T14:57:11;2.20;;;1.00;;
41141;SDS011;26882;0.000;0.000;2022-08-30T14:59:42;1.60;;;0.80;;
41141;SDS011;26882;0.000;0.000;2022-08-30T15:02:12;1.70;;;0.80;;
41141;SDS011;26882;0.000;0.000;2022-08-30T15:04:43;3.30;;;0.90;;
41141;SDS011;26882;0.000;0.000;2022-08-30T15:07:14;2.70;;;1.00;;
41141;SDS011;26882;0.000;0.000;2022-08-30T15:09:50;3.10;;;0.90;;
41141;SDS011;26882;0.000;0.000;2022-08-30T15:12:21;3.70;;;1.20;;
41141;SDS011;26882;0.000;0.000;2022-08-30T15:14:51;3.10;;;1.00;;
41141;SDS011;26882;0.000;0.000;2022-08-30T15:17:22;2.80;;;1.10;;
41141;SDS011;26882;0.000;0.000;2022-08-30T15:19:57;2.90;;;0.90;;
41141;SDS011;26882;0.000;0.000;2022-08-30T15:22:28;3.20;;;0.90;;
41141;SDS011;26882;0.000;0.000;2022-08-30T15:25:00;3.50;;;0.90;;
41141;SDS011;26882;0.000;0.000;2022-08-30T15:27:32;2.20;;;0.70;;
41141;SDS011;26882;0.000;0.000;2022-08-30T15:30:03;3.70;;;0.90;;
41141;SDS011;26882;0.000;0.000;2022-08-30T15:32:33;2.30;;;0.80;;
41141;SDS011;26882;0.000;0.000;2022-08-30T15:37:39;3.20;;;1.00;;
41141;SDS011;26882;0.000;0.000;2022-08-30T15:40:11;1.90;;;0.80;;
41141;SDS011;26882;0.000;0.000;2022-08-30T15:42:42;2.10;;;0.80;;
41141;SDS011;26882;0.000;0.000;2022-08-30T15:45:19;3.40;;;0.90;;
41141;SDS011;26882;0.000;0.000;2022-08-30T15:47:53;2.10;;;0.80;;
41141;SDS011;26882;0.000;0.000;2022-08-30T15:50:27;2.60;;;0.70;;
41141;SDS011;26882;0.000;0.000;2022-08-30T15:52:58;2.40;;;0.80;;
41141;SDS011;26882;0.000;0.000;2022-08-30T15:55:30;2.50;;;0.80;;
41141;SDS011;26882;0.000;0.000;2022-08-30T15:58:01;2.90;;;0.90;;
41141;SDS011;26882;0.000;0.000;2022-08-30T16:00:34;2.10;;;0.70;;
41141;SDS011;26882;0.000;0.000;2022-08-30T16:03:04;3.20;;;0.80;;
41141;SDS011;26882;0.000;0.000;2022-08-30T16:05:35;3.10;;;0.80;;
41141;SDS011;26882;0.000;0.000;2022-08-30T16:08:09;4.90;;;0.90;;
41141;SDS011;26882;0.000;0.000;2022-08-30T16:10:40;3.20;;;0.80;;
41141;SDS011;26882;0.000;0.000;2022-08-30T16:13:11;2.30;;;0.70;;
41141;SDS011;26882;0.000;0.000;2022-08-30T16:15:42;2.80;;;0.80;;